createdAt,value
2023-04-13T00:01:23.509Z,10.93
2023-04-13T00:04:45.261Z,10.94
2023-04-13T00:08:09.267Z,10.93
2023-04-13T00:11:32.070Z,10.90
2023-04-13T00:14:53.934Z,10.89
2023-04-13T00:18:15.764Z,10.89
2023-04-13T00:21:37.999Z,10.87
2023-04-13T00:25:01.451Z,10.86
2023-04-13T00:28:24.342Z,10.83
2023-04-13T00:31:47.298Z,10.79
2023-04-13T00:35:10.733Z,10.78
2023-04-13T00:38:33.171Z,10.75
2023-04-13T00:41:56.074Z,10.73
2023-04-13T00:45:19.181Z,10.71
2023-04-13T00:48:41.248Z,10.69
2023-04-13T00:52:03.855Z,10.69
2023-04-13T00:55:25.773Z,10.68
2023-04-13T00:58:48.610Z,10.68
2023-04-13T01:02:10.419Z,10.64
2023-04-13T01:05:51.797Z,10.63
2023-04-13T01:09:19.720Z,10.57
2023-04-13T01:12:52.703Z,10.56
2023-04-13T01:16:21.301Z,10.56
2023-04-13T01:19:52.214Z,10.57
2023-04-13T01:23:28.482Z,10.57
2023-04-13T01:27:12.323Z,10.57
2023-04-13T01:30:37.587Z,10.54
2023-04-13T01:34:00.101Z,10.51
2023-04-13T01:37:25.790Z,10.46
2023-04-13T01:40:50.762Z,10.40
2023-04-13T01:44:14.116Z,10.36
2023-04-13T01:47:40.662Z,10.31
2023-04-13T01:51:24.330Z,10.24
2023-04-13T01:54:52.166Z,10.16
2023-04-13T01:58:15.832Z,10.06
2023-04-13T02:01:43.535Z,9.95
2023-04-13T02:05:09.631Z,9.88
2023-04-13T02:08:33.623Z,9.86
2023-04-13T02:11:55.377Z,9.84
2023-04-13T02:15:18.275Z,9.76
2023-04-13T02:18:41.170Z,9.70
2023-04-13T02:22:04.091Z,9.68
2023-04-13T02:25:25.985Z,9.72
2023-04-13T02:28:48.153Z,9.63
2023-04-13T02:32:10.554Z,9.70
2023-04-13T02:35:34.444Z,9.69
2023-04-13T02:38:58.478Z,9.70
2023-04-13T02:42:24.187Z,9.71
2023-04-13T02:45:46.289Z,9.61
2023-04-13T02:49:10.760Z,9.47
2023-04-13T02:52:39.166Z,9.40
2023-04-13T02:56:03.052Z,9.30
2023-04-13T02:59:25.642Z,9.26
2023-04-13T03:02:47.699Z,9.21
2023-04-13T03:06:12.298Z,9.09
2023-04-13T03:09:40.946Z,9.03
2023-04-13T03:13:05.886Z,9.00
2023-04-13T03:16:28.326Z,8.94
2023-04-13T03:19:52.092Z,8.87
2023-04-13T03:23:16.395Z,8.81
2023-04-13T03:26:39.339Z,8.81
2023-04-13T03:30:09.039Z,8.66
2023-04-13T03:33:40.503Z,8.57
2023-04-13T03:37:02.867Z,8.59
2023-04-13T03:40:25.110Z,8.59
2023-04-13T03:43:48.071Z,8.54
2023-04-13T03:47:11.475Z,8.49
2023-04-13T03:50:33.071Z,8.48
2023-04-13T03:53:55.638Z,8.44
2023-04-13T03:57:21.416Z,8.40
2023-04-13T04:00:44.451Z,8.34
2023-04-13T04:04:16.278Z,8.30
2023-04-13T04:07:38.561Z,8.30
2023-04-13T04:11:00.929Z,8.22
2023-04-13T04:14:24.377Z,8.17
2023-04-13T04:17:53.424Z,8.15
2023-04-13T04:21:21.653Z,8.11
2023-04-13T04:24:43.447Z,8.13
2023-04-13T04:28:06.340Z,8.14
2023-04-13T04:31:27.881Z,8.13
2023-04-13T04:34:53.080Z,8.16
2023-04-13T04:38:18.611Z,8.15
2023-04-13T04:41:40.578Z,8.18
2023-04-13T04:45:04.629Z,8.18
2023-04-13T04:48:31.706Z,8.21
2023-04-13T04:51:57.491Z,8.18
2023-04-13T04:55:21.300Z,8.16
2023-04-13T04:58:43.594Z,8.18
2023-04-13T05:02:06.092Z,8.18
2023-04-13T05:05:27.815Z,8.20
2023-04-13T05:08:49.794Z,8.22
2023-04-13T05:12:12.851Z,8.24
2023-04-13T05:15:38.451Z,8.24
2023-04-13T05:19:01.220Z,8.27
2023-04-13T05:22:42.154Z,8.28
2023-04-13T05:26:04.196Z,8.29
2023-04-13T05:29:27.441Z,8.30
2023-04-13T05:32:49.171Z,8.29
2023-04-13T05:36:11.562Z,8.29
2023-04-13T05:39:36.312Z,8.27
2023-04-13T05:42:57.915Z,8.26
2023-04-13T05:46:26.146Z,8.26
2023-04-13T05:49:48.318Z,8.26
2023-04-13T05:53:14.049Z,8.25
2023-04-13T05:56:42.959Z,8.26
2023-04-13T06:00:08.041Z,8.28
2023-04-13T06:03:43.492Z,8.30
2023-04-13T06:07:05.886Z,8.33
2023-04-13T06:10:28.325Z,8.33
2023-04-13T06:13:50.096Z,8.35
2023-04-13T06:17:11.548Z,8.39
2023-04-13T06:20:36.026Z,8.43
2023-04-13T06:23:58.020Z,8.49
2023-04-13T06:27:23.809Z,8.57
2023-04-13T06:30:45.820Z,8.59
2023-04-13T06:34:09.699Z,8.60
2023-04-13T06:37:34.139Z,8.59
2023-04-13T06:41:02.332Z,8.66
2023-04-13T06:44:27.060Z,8.74
2023-04-13T06:47:54.568Z,8.81
2023-04-13T06:51:16.180Z,8.90
2023-04-13T06:54:39.562Z,8.97
2023-04-13T06:58:14.353Z,9.04
2023-04-13T07:01:36.823Z,9.07
2023-04-13T07:04:59.568Z,9.09
2023-04-13T07:08:22.949Z,9.14
2023-04-13T07:11:46.254Z,9.17
2023-04-13T07:15:10.731Z,9.20
2023-04-13T07:18:33.475Z,9.25
2023-04-13T07:21:55.012Z,9.28
2023-04-13T07:25:17.059Z,9.34
2023-04-13T07:28:41.631Z,9.39
2023-04-13T07:32:08.489Z,9.43
2023-04-13T07:35:32.074Z,9.49
2023-04-13T07:38:55.342Z,9.55
2023-04-13T07:42:17.516Z,9.59
2023-04-13T07:45:45.972Z,9.63
2023-04-13T07:49:07.850Z,9.60
2023-04-13T07:52:31.588Z,9.64
2023-04-13T07:55:53.561Z,9.66
2023-04-13T07:59:15.884Z,9.71
2023-04-13T08:02:41.665Z,9.70
2023-04-13T08:06:08.424Z,9.72
2023-04-13T08:09:32.926Z,9.69
2023-04-13T08:12:54.687Z,9.75
2023-04-13T08:16:17.005Z,9.80
2023-04-13T08:19:40.586Z,9.69
2023-04-13T08:23:05.679Z,9.71
2023-04-13T08:26:27.716Z,9.76
2023-04-13T08:29:56.657Z,9.80
2023-04-13T08:33:18.577Z,9.82
2023-04-13T08:36:41.739Z,9.85
2023-04-13T08:40:07.742Z,9.91
2023-04-13T08:43:30.788Z,9.90
2023-04-13T08:46:53.558Z,9.92
2023-04-13T08:50:23.904Z,9.90
2023-04-13T08:53:49.896Z,9.96
2023-04-13T08:57:17.914Z,9.91
2023-04-13T09:00:41.736Z,9.96
2023-04-13T09:04:10.604Z,9.99
2023-04-13T09:07:37.097Z,9.97
2023-04-13T09:11:06.745Z,9.95
2023-04-13T09:14:29.222Z,9.99
2023-04-13T09:17:50.849Z,10.06
2023-04-13T09:21:14.905Z,10.04
2023-04-13T09:24:40.986Z,10.08
2023-04-13T09:28:08.619Z,10.13
2023-04-13T09:31:33.829Z,10.13
2023-04-13T09:35:00.012Z,10.11
2023-04-13T09:38:32.790Z,10.16
2023-04-13T09:41:54.923Z,10.26
2023-04-13T09:45:17.861Z,10.36
2023-04-13T09:48:40.124Z,10.39
2023-04-13T09:52:01.995Z,10.40
2023-04-13T09:55:24.350Z,10.48
2023-04-13T09:58:48.264Z,10.52
2023-04-13T10:02:13.213Z,10.58
2023-04-13T10:05:47.354Z,10.57
2023-04-13T10:09:21.223Z,10.66
2023-04-13T10:12:47.460Z,10.71
2023-04-13T10:16:33.882Z,10.73
2023-04-13T10:20:07.748Z,10.75
2023-04-13T10:23:32.082Z,10.76
2023-04-13T10:26:55.241Z,10.83
2023-04-13T10:30:18.713Z,10.92
2023-04-13T10:33:49.512Z,10.96
2023-04-13T10:37:21.539Z,10.94
2023-04-13T10:40:44.752Z,10.92
2023-04-13T10:44:08.026Z,10.94
2023-04-13T10:47:38.044Z,10.99
2023-04-13T10:51:00.480Z,11.09
2023-04-13T10:54:27.017Z,11.17
2023-04-13T10:57:48.619Z,11.26
2023-04-13T11:01:11.777Z,11.35
2023-04-13T11:04:34.138Z,11.44
2023-04-13T11:07:56.496Z,11.45
2023-04-13T11:11:27.148Z,11.46
2023-04-13T11:14:49.746Z,11.52
2023-04-13T11:18:11.858Z,11.59
2023-04-13T11:21:35.468Z,11.66
2023-04-13T11:25:08.985Z,11.69
2023-04-13T11:28:40.409Z,11.69
2023-04-13T11:32:02.162Z,11.73
2023-04-13T11:35:24.688Z,11.81
2023-04-13T11:38:49.776Z,11.87
2023-04-13T11:42:11.441Z,11.90
2023-04-13T11:45:35.675Z,11.91
2023-04-13T11:48:58.157Z,11.96
2023-04-13T11:52:20.743Z,11.96
2023-04-13T11:55:52.776Z,11.94
2023-04-13T11:59:15.982Z,11.87
2023-04-13T12:02:54.659Z,11.91
2023-04-13T12:06:24.296Z,11.90
2023-04-13T12:17:01.415Z,12.05
2023-04-13T12:20:20.439Z,12.02
2023-04-13T12:23:53.337Z,12.12
2023-04-13T12:27:18.947Z,12.23
2023-04-13T12:30:40.865Z,12.19
2023-04-13T12:34:02.228Z,12.31
2023-04-13T12:37:25.360Z,12.35
2023-04-13T12:40:46.960Z,12.39
2023-04-13T12:44:10.487Z,12.42
2023-04-13T12:47:32.190Z,12.45
2023-04-13T12:50:54.728Z,12.49
2023-04-13T12:54:18.067Z,12.56
2023-04-13T12:57:40.506Z,12.54
2023-04-13T13:01:02.877Z,12.55
2023-04-13T13:04:25.048Z,12.55
2023-04-13T13:07:46.628Z,12.51
2023-04-13T13:11:10.022Z,12.53
2023-04-13T13:14:32.404Z,12.59
2023-04-13T13:17:54.305Z,12.66
2023-04-13T13:21:16.020Z,12.77
2023-04-13T13:24:39.161Z,12.86
2023-04-13T13:28:14.158Z,12.95
2023-04-13T13:31:37.099Z,13.02
2023-04-13T13:34:59.011Z,13.11
2023-04-13T13:38:20.842Z,13.18
2023-04-13T13:41:42.177Z,13.21
2023-04-13T13:45:06.496Z,13.20
2023-04-13T13:48:28.377Z,13.27
2023-04-13T13:51:59.455Z,13.29
2023-04-13T13:55:24.017Z,13.37
2023-04-13T13:58:45.756Z,13.45
2023-04-13T14:02:09.727Z,13.42
2023-04-13T14:05:32.229Z,13.39
2023-04-13T14:08:55.830Z,13.39
2023-04-13T14:12:17.503Z,13.42
2023-04-13T14:15:38.851Z,13.50
2023-04-13T14:19:02.427Z,13.46
2023-04-13T14:22:24.628Z,13.59
2023-04-13T14:25:46.432Z,13.69
2023-04-13T14:29:09.020Z,13.81
2023-04-13T14:32:31.194Z,13.83
2023-04-13T14:35:54.453Z,13.82
2023-04-13T14:39:16.919Z,13.82
2023-04-13T14:42:38.341Z,13.87
2023-04-13T14:46:00.411Z,13.95
2023-04-13T14:49:22.080Z,14.02
2023-04-13T14:52:46.252Z,14.15
2023-04-13T14:56:08.469Z,14.28
2023-04-13T14:59:29.898Z,14.30
2023-04-13T15:02:52.488Z,14.41
2023-04-13T15:06:14.842Z,14.46
2023-04-13T15:09:40.258Z,14.50
2023-04-13T15:13:03.689Z,14.49
2023-04-13T15:16:25.618Z,14.42
2023-04-13T15:19:47.473Z,14.43
2023-04-13T15:23:09.530Z,14.50
2023-04-13T15:26:38.507Z,14.53
2023-04-13T15:30:03.142Z,14.61
2023-04-13T15:33:25.341Z,14.56
2023-04-13T15:36:47.187Z,14.58
2023-04-13T15:40:10.682Z,14.56
2023-04-13T15:43:33.726Z,14.54
2023-04-13T15:46:55.473Z,14.51
2023-04-13T15:50:18.435Z,14.49
2023-04-13T15:53:40.118Z,14.50
2023-04-13T15:57:02.452Z,14.50
2023-04-13T16:00:26.270Z,14.49
2023-04-13T16:03:48.263Z,14.48
2023-04-13T16:07:13.756Z,14.52
2023-04-13T16:10:37.193Z,14.55
2023-04-13T16:14:07.100Z,14.58
2023-04-13T16:17:34.549Z,14.66
2023-04-13T16:20:57.970Z,14.71
2023-04-13T16:24:21.095Z,14.75
2023-04-13T16:27:42.782Z,14.80
2023-04-13T16:31:04.803Z,14.82
2023-04-13T16:34:29.052Z,14.83
2023-04-13T16:37:50.541Z,14.87
2023-04-13T16:41:12.353Z,14.94
2023-04-13T16:44:34.539Z,15.00
2023-04-13T16:47:57.803Z,15.11
2023-04-13T16:51:20.994Z,15.14
2023-04-13T16:54:44.428Z,15.16
2023-04-13T16:58:07.457Z,15.13
2023-04-13T17:01:30.837Z,15.08
2023-04-13T17:04:54.607Z,15.04
2023-04-13T17:08:17.873Z,15.00
2023-04-13T17:11:39.253Z,14.91
2023-04-13T17:15:01.079Z,14.76
2023-04-13T17:18:25.863Z,14.60
2023-04-13T17:21:47.577Z,14.54
2023-04-13T17:25:11.349Z,14.47
2023-04-13T17:28:33.414Z,14.41
2023-04-13T17:31:54.949Z,14.35
2023-04-13T17:35:18.597Z,14.31
2023-04-13T17:38:40.643Z,14.25
2023-04-13T17:42:03.847Z,14.17
2023-04-13T17:45:25.329Z,14.04
2023-04-13T17:48:46.662Z,13.91
2023-04-13T17:52:09.603Z,13.78
2023-04-13T17:55:31.551Z,13.68
2023-04-13T17:58:54.948Z,13.57
2023-04-13T18:02:16.959Z,13.48
2023-04-13T18:05:44.330Z,13.38
2023-04-13T18:09:06.094Z,13.25
2023-04-13T18:12:27.518Z,13.09
2023-04-13T18:15:50.714Z,12.94
2023-04-13T18:19:12.286Z,12.80
2023-04-13T18:22:34.599Z,12.68
2023-04-13T18:25:56.346Z,12.58
2023-04-13T18:29:17.698Z,12.49
2023-04-13T18:32:40.958Z,12.41
2023-04-13T18:36:02.659Z,12.32
2023-04-13T18:39:24.653Z,12.22
2023-04-13T18:42:49.925Z,12.13
2023-04-13T18:46:12.516Z,12.02
2023-04-13T18:49:36.001Z,11.92
2023-04-13T18:52:58.046Z,11.82
2023-04-13T18:56:19.496Z,11.73
2023-04-13T18:59:40.912Z,11.66
2023-04-13T19:03:02.442Z,11.56
2023-04-13T19:06:26.362Z,11.43
2023-04-13T19:09:48.471Z,11.35
2023-04-13T19:13:15.541Z,11.28
2023-04-13T19:16:38.066Z,11.23
2023-04-13T19:19:59.551Z,11.14
2023-04-13T19:23:23.015Z,11.07
2023-04-13T19:26:44.595Z,11.01
2023-04-13T19:30:09.718Z,10.93
2023-04-13T19:33:33.461Z,10.87
2023-04-13T19:36:54.957Z,10.75
2023-04-13T19:40:18.033Z,10.64
2023-04-13T19:43:40.118Z,10.54
2023-04-13T19:47:01.928Z,10.45
2023-04-13T19:50:23.578Z,10.36
2023-04-13T19:53:44.963Z,10.25
2023-04-13T19:57:08.487Z,10.15
2023-04-13T20:00:30.103Z,10.12
2023-04-13T20:03:52.265Z,10.05
2023-04-13T20:07:14.568Z,9.98
2023-04-13T20:10:36.213Z,9.89
2023-04-13T20:13:59.186Z,9.83
2023-04-13T20:17:21.186Z,9.74
2023-04-13T20:20:43.347Z,9.67
2023-04-13T20:24:06.022Z,9.61
2023-04-13T20:27:27.764Z,9.56
2023-04-13T20:30:51.028Z,9.51
2023-04-13T20:34:13.612Z,9.49
2023-04-13T20:37:35.273Z,9.45
2023-04-13T20:40:57.043Z,9.38
2023-04-13T20:44:23.612Z,9.32
2023-04-13T20:47:50.392Z,9.27
2023-04-13T20:51:13.129Z,9.18
2023-04-13T20:54:34.739Z,9.08
2023-04-13T20:57:56.539Z,8.97
2023-04-13T21:01:18.311Z,8.89
2023-04-13T21:04:42.240Z,8.82
2023-04-13T21:08:03.985Z,8.78
2023-04-13T21:11:26.202Z,8.78
2023-04-13T21:14:47.806Z,8.75
2023-04-13T21:18:10.084Z,8.73
2023-04-13T21:21:33.027Z,8.71
2023-04-13T21:24:55.425Z,8.71
2023-04-13T21:28:17.850Z,8.68
2023-04-13T21:31:39.369Z,8.65
2023-04-13T21:35:01.162Z,8.62
2023-04-13T21:38:24.564Z,8.60
2023-04-13T21:41:46.363Z,8.57
2023-04-13T21:45:09.421Z,8.53
2023-04-13T21:48:31.101Z,8.49
2023-04-13T21:51:52.382Z,8.44
2023-04-13T21:55:18.897Z,8.40
2023-04-13T21:58:42.022Z,8.34
2023-04-13T22:02:04.110Z,8.30
2023-04-13T22:05:26.043Z,8.24
2023-04-13T22:08:47.377Z,8.19
2023-04-13T22:12:11.499Z,8.12
2023-04-13T22:15:33.715Z,8.02
2023-04-13T22:18:55.328Z,7.94
2023-04-13T22:22:16.773Z,7.84
2023-04-13T22:25:38.751Z,7.76
2023-04-13T22:29:02.363Z,7.67
2023-04-13T22:32:24.722Z,7.58
2023-04-13T22:35:46.448Z,7.50
2023-04-13T22:39:08.345Z,7.44
2023-04-13T22:42:30.069Z,7.36
2023-04-13T22:45:59.651Z,7.26
2023-04-13T22:49:21.938Z,7.19
2023-04-13T22:52:43.252Z,7.14
2023-04-13T22:56:05.600Z,7.07
2023-04-13T22:59:27.279Z,7.04
2023-04-13T23:02:55.825Z,7.02
2023-04-13T23:06:17.667Z,7.02
2023-04-13T23:09:39.349Z,6.97
2023-04-13T23:13:02.238Z,6.95
2023-04-13T23:16:23.631Z,6.95
2023-04-13T23:19:46.929Z,6.96
2023-04-13T23:23:08.304Z,6.95
2023-04-13T23:26:30.017Z,6.95
2023-04-13T23:29:51.705Z,6.95
2023-04-13T23:33:13.743Z,6.98
2023-04-13T23:36:37.377Z,6.98
2023-04-13T23:39:58.971Z,7.02
2023-04-13T23:43:21.355Z,7.04
2023-04-13T23:46:43.518Z,7.05
2023-04-13T23:50:06.060Z,7.08
2023-04-13T23:53:29.100Z,7.08
2023-04-13T23:56:50.660Z,7.10
